Portada
METAR-TAF:

METAR-TAF

Aeroports :

Terol, Espanya

latitud: 40-24-43N, longitud: 01-13-03W, altitud: 1030 m

Observació

L'informe es va fer fa 31 minuts, a les 09:00 UTC
Vent 3 kt del Nord/Nord-Oest, variant entre Oest i Nord
Temperatura 8°C
Humitat 49%
Pressió 1026 hPa
Visibilitat 10 km o més

METAR: LETL 240900Z AUTO 33003KT 260V010 9999 NCD 08/M02 Q1026

Hora: 10:31 (09:31 UTC)


TAF: manca

Observacions i pronòstics meteorològics de més de 4000 aeroports (METAR i TAF).

Les estacions disponibles són els punts grocs i vermells al mapa.

Posi el ratolí al punt desitjat per veure el nom de l'estació.

Feu clic per veure les observacions i els pronòstics meteorològics.

Per canviar el mapa: feu clic els botons verds amb una creu de color negre per apropar; al botó verd amb un guió per allunyar la imatge; o en les fletxes verdes per a mapes adjacents.


METAR-TAF: